OINR  Ramsar  Airport

Iran

Add Bookmark
ICAO OINR
IATA RZR
Type Airport
Status Operational
Latitude
36° 54' 35" N
36.909901
Longitude
50° 40' 46" E
50.679600
Local (GMT +4.5 ) UTC
May 30, 2016 10:45 pm May 30, 2016 18:15
Sunrise-Sunset Local UTC
Begin Civil Twilight 05:18 am 00:48
Sunrise 05:48 am 01:18
Sunset 08:21 pm 15:51
End Civil Twilight 08:51 pm 16:21
VFR
VFR
MVFR
MVFR
IFR
IFR
LIFR
LIFR
Unknown
Unavailable

Current Weather

METAR Observed VFR
OINR 301800Z 27004KT 9999 FEW035 22/18 Q1007 Mon, May 30, 2016 @ 18:00 UTC
(15 Minutes ago)
Visual Flight Rules
Wind Visibility Clouds Conditions
270° at 4 knots (7 kph) 10 km or more
  • Few at 3,500 ft AGL
  • No significant weather
Temperatures Readings Precipitation
Current Temp
22°C
72°F
Dewpoint
18°C
64°F
Humidity 78%
Altimeter 29.73" Hg
Sea Level Pressure 1,007 mb
None Recorded

Additional weather within a 92.6km radius of OINR

Map ICAO Location
OINN 75km E/SE (111°)
VFR
VFR
MVFR
MVFR
IFR
IFR
LIFR
LIFR
Unknown
Unavailable
-
-

CheckWX.com is intended as a tool to help pilots better visualize weather data. It is not intended as a substitute for an official weather briefing obtained from a Flight Service Station. CheckWX.com does not meet the FAA requirements for an official pre-flight weather briefing. Therefore, it's important that pilots still call and obtain an official FSS pre-flight weather briefing.

© 2007-2016 CheckWX.com
18:15:54 UTC